sensor_id;sensor_type;location;lat;lon;timestamp;temperature;humidity
52305;DHT22;38248;52.722;6.734;2022-07-05T00:00:36;12.60;99.90
52305;DHT22;38248;52.722;6.734;2022-07-05T00:03:01;12.50;99.90
52305;DHT22;38248;52.722;6.734;2022-07-05T00:05:27;12.40;99.90
52305;DHT22;38248;52.722;6.734;2022-07-05T00:07:53;12.40;99.90
52305;DHT22;38248;52.722;6.734;2022-07-05T00:10:18;12.30;99.90
52305;DHT22;38248;52.722;6.734;2022-07-05T00:12:44;12.30;99.90
52305;DHT22;38248;52.722;6.734;2022-07-05T00:15:09;12.20;99.90
52305;DHT22;38248;52.722;6.734;2022-07-05T00:17:35;12.20;99.90
52305;DHT22;38248;52.722;6.734;2022-07-05T00:20:01;12.30;99.90
52305;DHT22;38248;52.722;6.734;2022-07-05T00:22:27;12.10;99.90
52305;DHT22;38248;52.722;6.734;2022-07-05T00:24:52;12.10;99.90
52305;DHT22;38248;52.722;6.734;2022-07-05T00:27:18;12.10;99.90
52305;DHT22;38248;52.722;6.734;2022-07-05T00:29:45;12.00;99.90
52305;DHT22;38248;52.722;6.734;2022-07-05T00:32:10;11.90;99.90
52305;DHT22;38248;52.722;6.734;2022-07-05T00:34:36;11.90;99.90
52305;DHT22;38248;52.722;6.734;2022-07-05T00:37:02;11.90;99.90
52305;DHT22;38248;52.722;6.734;2022-07-05T00:39:27;11.80;99.90
52305;DHT22;38248;52.722;6.734;2022-07-05T00:41:53;11.80;99.90
52305;DHT22;38248;52.722;6.734;2022-07-05T00:44:32;11.70;99.90
52305;DHT22;38248;52.722;6.734;2022-07-05T00:46:58;11.70;99.90
52305;DHT22;38248;52.722;6.734;2022-07-05T00:49:23;11.60;99.90
52305;DHT22;38248;52.722;6.734;2022-07-05T00:51:49;11.80;99.90
52305;DHT22;38248;52.722;6.734;2022-07-05T00:54:14;11.60;99.90
52305;DHT22;38248;52.722;6.734;2022-07-05T00:56:40;11.60;99.90
52305;DHT22;38248;52.722;6.734;2022-07-05T00:59:06;11.60;99.90
52305;DHT22;38248;52.722;6.734;2022-07-05T01:01:32;11.50;99.90
52305;DHT22;38248;52.722;6.734;2022-07-05T01:03:57;11.60;99.90
52305;DHT22;38248;52.722;6.734;2022-07-05T01:06:23;11.50;99.90
52305;DHT22;38248;52.722;6.734;2022-07-05T01:08:49;11.60;99.90
52305;DHT22;38248;52.722;6.734;2022-07-05T01:11:15;11.40;99.90
52305;DHT22;38248;52.722;6.734;2022-07-05T01:13:41;11.50;99.90
52305;DHT22;38248;52.722;6.734;2022-07-05T01:16:07;11.40;99.90
52305;DHT22;38248;52.722;6.734;2022-07-05T01:18:32;11.40;99.90
52305;DHT22;38248;52.722;6.734;2022-07-05T01:20:59;11.40;99.90
52305;DHT22;38248;52.722;6.734;2022-07-05T01:23:27;11.30;99.90
52305;DHT22;38248;52.722;6.734;2022-07-05T01:25:54;11.30;99.90
52305;DHT22;38248;52.722;6.734;2022-07-05T01:28:20;11.20;99.90
52305;DHT22;38248;52.722;6.734;2022-07-05T01:30:47;11.20;99.90
52305;DHT22;38248;52.722;6.734;2022-07-05T01:33:15;11.20;99.90
52305;DHT22;38248;52.722;6.734;2022-07-05T01:35:41;11.20;99.90
52305;DHT22;38248;52.722;6.734;2022-07-05T01:38:07;11.20;99.90
52305;DHT22;38248;52.722;6.734;2022-07-05T01:40:32;11.20;99.90
52305;DHT22;38248;52.722;6.734;2022-07-05T01:42:59;11.20;99.90
52305;DHT22;38248;52.722;6.734;2022-07-05T01:45:24;11.20;99.90
52305;DHT22;38248;52.722;6.734;2022-07-05T01:48:11;11.20;99.90
52305;DHT22;38248;52.722;6.734;2022-07-05T01:50:47;11.20;99.90
52305;DHT22;38248;52.722;6.734;2022-07-05T01:53:17;11.20;99.90
52305;DHT22;38248;52.722;6.734;2022-07-05T01:55:44;11.20;99.90
52305;DHT22;38248;52.722;6.734;2022-07-05T01:58:10;11.10;99.90
52305;DHT22;38248;52.722;6.734;2022-07-05T02:00:47;11.10;99.90
52305;DHT22;38248;52.722;6.734;2022-07-05T02:03:15;11.20;99.90
52305;DHT22;38248;52.722;6.734;2022-07-05T02:05:42;11.00;99.90
52305;DHT22;38248;52.722;6.734;2022-07-05T02:08:08;11.10;99.90
52305;DHT22;38248;52.722;6.734;2022-07-05T02:10:37;11.00;99.90
52305;DHT22;38248;52.722;6.734;2022-07-05T02:13:04;11.00;99.90
52305;DHT22;38248;52.722;6.734;2022-07-05T02:15:34;11.00;99.90
52305;DHT22;38248;52.722;6.734;2022-07-05T02:18:01;11.00;99.90
52305;DHT22;38248;52.722;6.734;2022-07-05T02:20:27;11.00;99.90
52305;DHT22;38248;52.722;6.734;2022-07-05T02:22:56;10.90;99.90
52305;DHT22;38248;52.722;6.734;2022-07-05T02:25:22;11.00;99.90
52305;DHT22;38248;52.722;6.734;2022-07-05T02:27:48;10.90;99.90
52305;DHT22;38248;52.722;6.734;2022-07-05T02:30:14;10.90;99.90
52305;DHT22;38248;52.722;6.734;2022-07-05T02:32:40;10.90;99.90
52305;DHT22;38248;52.722;6.734;2022-07-05T02:35:07;10.90;99.90
52305;DHT22;38248;52.722;6.734;2022-07-05T02:37:34;10.90;99.90
52305;DHT22;38248;52.722;6.734;2022-07-05T02:39:59;10.90;99.90
52305;DHT22;38248;52.722;6.734;2022-07-05T02:42:25;10.80;99.90
52305;DHT22;38248;52.722;6.734;2022-07-05T02:44:51;10.80;99.90
52305;DHT22;38248;52.722;6.734;2022-07-05T02:47:16;10.80;99.90
52305;DHT22;38248;52.722;6.734;2022-07-05T02:49:42;10.80;99.90
52305;DHT22;38248;52.722;6.734;2022-07-05T02:52:08;10.70;99.90
52305;DHT22;38248;52.722;6.734;2022-07-05T02:54:33;10.70;99.90
52305;DHT22;38248;52.722;6.734;2022-07-05T02:56:59;10.70;99.90
52305;DHT22;38248;52.722;6.734;2022-07-05T02:59:25;10.70;99.90
52305;DHT22;38248;52.722;6.734;2022-07-05T03:01:51;10.60;99.90
52305;DHT22;38248;52.722;6.734;2022-07-05T03:04:17;10.60;99.90
52305;DHT22;38248;52.722;6.734;2022-07-05T03:06:43;10.70;99.90
52305;DHT22;38248;52.722;6.734;2022-07-05T03:09:08;10.70;99.90
52305;DHT22;38248;52.722;6.734;2022-07-05T03:11:34;10.70;99.90
52305;DHT22;38248;52.722;6.734;2022-07-05T03:14:00;10.70;99.90
52305;DHT22;38248;52.722;6.734;2022-07-05T03:16:25;10.70;99.90
52305;DHT22;38248;52.722;6.734;2022-07-05T03:18:51;10.70;99.90
52305;DHT22;38248;52.722;6.734;2022-07-05T03:21:17;10.70;99.90
52305;DHT22;38248;52.722;6.734;2022-07-05T03:23:43;10.70;99.90
52305;DHT22;38248;52.722;6.734;2022-07-05T03:26:08;10.70;99.90
52305;DHT22;38248;52.722;6.734;2022-07-05T03:28:34;10.70;99.90
52305;DHT22;38248;52.722;6.734;2022-07-05T03:31:00;10.80;99.90
52305;DHT22;38248;52.722;6.734;2022-07-05T03:33:27;10.80;99.90
52305;DHT22;38248;52.722;6.734;2022-07-05T03:35:52;10.80;99.90
52305;DHT22;38248;52.722;6.734;2022-07-05T03:38:18;10.80;99.90
52305;DHT22;38248;52.722;6.734;2022-07-05T03:40:44;10.90;99.90
52305;DHT22;38248;52.722;6.734;2022-07-05T03:43:10;10.80;99.90
52305;DHT22;38248;52.722;6.734;2022-07-05T03:45:38;10.90;99.90
52305;DHT22;38248;52.722;6.734;2022-07-05T03:48:04;10.90;99.90
52305;DHT22;38248;52.722;6.734;2022-07-05T03:50:32;10.90;99.90
52305;DHT22;38248;52.722;6.734;2022-07-05T03:52:58;11.10;99.90
52305;DHT22;38248;52.722;6.734;2022-07-05T03:55:23;11.10;99.90
52305;DHT22;38248;52.722;6.734;2022-07-05T03:57:49;11.10;99.90
52305;DHT22;38248;52.722;6.734;2022-07-05T04:00:15;11.10;99.90
52305;DHT22;38248;52.722;6.734;2022-07-05T04:02:41;11.20;99.90
52305;DHT22;38248;52.722;6.734;2022-07-05T04:05:07;11.20;99.90
52305;DHT22;38248;52.722;6.734;2022-07-05T04:07:33;11.20;99.90
52305;DHT22;38248;52.722;6.734;2022-07-05T04:09:59;11.30;99.90
52305;DHT22;38248;52.722;6.734;2022-07-05T04:12:25;11.30;99.90
52305;DHT22;38248;52.722;6.734;2022-07-05T04:14:50;11.30;99.90
52305;DHT22;38248;52.722;6.734;2022-07-05T04:17:16;11.30;99.90
52305;DHT22;38248;52.722;6.734;2022-07-05T04:19:42;11.40;99.90
52305;DHT22;38248;52.722;6.734;2022-07-05T04:22:07;11.50;99.90
52305;DHT22;38248;52.722;6.734;2022-07-05T04:24:33;11.60;99.90
52305;DHT22;38248;52.722;6.734;2022-07-05T04:27:21;11.70;99.90
52305;DHT22;38248;52.722;6.734;2022-07-05T04:29:47;11.80;99.90
52305;DHT22;38248;52.722;6.734;2022-07-05T04:32:13;12.00;99.90
52305;DHT22;38248;52.722;6.734;2022-07-05T04:34:38;12.10;99.90
52305;DHT22;38248;52.722;6.734;2022-07-05T04:37:04;12.20;99.90
52305;DHT22;38248;52.722;6.734;2022-07-05T04:39:30;12.40;99.90
52305;DHT22;38248;52.722;6.734;2022-07-05T04:41:55;12.50;99.90
52305;DHT22;38248;52.722;6.734;2022-07-05T04:44:21;12.60;99.90
52305;DHT22;38248;52.722;6.734;2022-07-05T04:46:49;12.70;99.90
52305;DHT22;38248;52.722;6.734;2022-07-05T04:49:14;12.90;99.90
52305;DHT22;38248;52.722;6.734;2022-07-05T04:51:40;13.10;99.90
52305;DHT22;38248;52.722;6.734;2022-07-05T04:54:06;13.20;99.90
52305;DHT22;38248;52.722;6.734;2022-07-05T04:56:31;13.40;99.90
52305;DHT22;38248;52.722;6.734;2022-07-05T04:58:57;13.50;99.90
52305;DHT22;38248;52.722;6.734;2022-07-05T05:01:22;13.70;99.90
52305;DHT22;38248;52.722;6.734;2022-07-05T05:03:48;13.70;99.90
52305;DHT22;38248;52.722;6.734;2022-07-05T05:06:13;13.90;99.90
52305;DHT22;38248;52.722;6.734;2022-07-05T05:08:40;13.90;99.90
52305;DHT22;38248;52.722;6.734;2022-07-05T05:11:07;13.90;99.90
52305;DHT22;38248;52.722;6.734;2022-07-05T05:13:33;14.00;99.90
52305;DHT22;38248;52.722;6.734;2022-07-05T05:15:58;14.10;99.90
52305;DHT22;38248;52.722;6.734;2022-07-05T05:18:24;14.20;99.90
52305;DHT22;38248;52.722;6.734;2022-07-05T05:20:53;14.10;99.90
52305;DHT22;38248;52.722;6.734;2022-07-05T05:23:23;14.20;99.90
52305;DHT22;38248;52.722;6.734;2022-07-05T05:25:48;14.30;99.90
52305;DHT22;38248;52.722;6.734;2022-07-05T05:28:14;14.40;99.90
52305;DHT22;38248;52.722;6.734;2022-07-05T05:30:42;14.40;99.90
52305;DHT22;38248;52.722;6.734;2022-07-05T05:33:08;14.40;99.90
52305;DHT22;38248;52.722;6.734;2022-07-05T05:35:34;14.50;99.90
52305;DHT22;38248;52.722;6.734;2022-07-05T05:37:59;14.30;99.90
52305;DHT22;38248;52.722;6.734;2022-07-05T05:40:25;14.40;99.90
52305;DHT22;38248;52.722;6.734;2022-07-05T05:42:52;14.40;99.90
52305;DHT22;38248;52.722;6.734;2022-07-05T05:45:19;14.40;99.90
52305;DHT22;38248;52.722;6.734;2022-07-05T05:47:45;14.50;99.90
52305;DHT22;38248;52.722;6.734;2022-07-05T05:50:12;14.60;99.90
52305;DHT22;38248;52.722;6.734;2022-07-05T05:52:37;14.50;99.90
52305;DHT22;38248;52.722;6.734;2022-07-05T05:55:03;14.50;99.90
52305;DHT22;38248;52.722;6.734;2022-07-05T05:57:31;14.60;99.90
52305;DHT22;38248;52.722;6.734;2022-07-05T05:59:57;14.70;99.90
52305;DHT22;38248;52.722;6.734;2022-07-05T06:02:22;14.70;99.90
52305;DHT22;38248;52.722;6.734;2022-07-05T06:04:48;14.80;99.90
52305;DHT22;38248;52.722;6.734;2022-07-05T06:07:13;14.90;99.90
52305;DHT22;38248;52.722;6.734;2022-07-05T06:09:39;15.00;99.90
52305;DHT22;38248;52.722;6.734;2022-07-05T06:12:05;15.00;99.90
52305;DHT22;38248;52.722;6.734;2022-07-05T06:14:30;15.10;99.90
52305;DHT22;38248;52.722;6.734;2022-07-05T06:16:56;15.20;99.90
52305;DHT22;38248;52.722;6.734;2022-07-05T06:19:21;15.40;99.90
52305;DHT22;38248;52.722;6.734;2022-07-05T06:21:47;15.40;99.90
52305;DHT22;38248;52.722;6.734;2022-07-05T06:24:13;15.50;99.90
52305;DHT22;38248;52.722;6.734;2022-07-05T06:26:38;15.50;99.90
52305;DHT22;38248;52.722;6.734;2022-07-05T06:29:04;15.60;99.90
52305;DHT22;38248;52.722;6.734;2022-07-05T06:31:29;15.70;99.90
52305;DHT22;38248;52.722;6.734;2022-07-05T06:33:55;15.80;99.90
52305;DHT22;38248;52.722;6.734;2022-07-05T06:36:23;15.90;99.90
52305;DHT22;38248;52.722;6.734;2022-07-05T06:38:48;16.00;99.90
52305;DHT22;38248;52.722;6.734;2022-07-05T06:41:14;16.10;99.90
52305;DHT22;38248;52.722;6.734;2022-07-05T06:43:40;16.20;99.90
52305;DHT22;38248;52.722;6.734;2022-07-05T06:46:05;16.40;99.90
52305;DHT22;38248;52.722;6.734;2022-07-05T06:48:31;16.40;99.90
52305;DHT22;38248;52.722;6.734;2022-07-05T06:50:56;16.50;99.90
52305;DHT22;38248;52.722;6.734;2022-07-05T06:53:22;16.60;99.90
52305;DHT22;38248;52.722;6.734;2022-07-05T06:55:48;16.70;99.90
52305;DHT22;38248;52.722;6.734;2022-07-05T06:58:13;16.70;99.90
52305;DHT22;38248;52.722;6.734;2022-07-05T07:00:40;16.80;99.90
52305;DHT22;38248;52.722;6.734;2022-07-05T07:03:06;16.90;99.90
52305;DHT22;38248;52.722;6.734;2022-07-05T07:05:32;17.00;99.90
52305;DHT22;38248;52.722;6.734;2022-07-05T07:07:57;17.10;99.90
52305;DHT22;38248;52.722;6.734;2022-07-05T07:10:41;17.20;99.90
52305;DHT22;38248;52.722;6.734;2022-07-05T07:13:07;17.40;99.90
52305;DHT22;38248;52.722;6.734;2022-07-05T07:15:33;17.40;99.90
52305;DHT22;38248;52.722;6.734;2022-07-05T07:18:03;17.60;99.90
52305;DHT22;38248;52.722;6.734;2022-07-05T07:20:29;17.70;99.90
52305;DHT22;38248;52.722;6.734;2022-07-05T07:22:55;17.70;99.90
52305;DHT22;38248;52.722;6.734;2022-07-05T07:25:21;17.80;99.90
52305;DHT22;38248;52.722;6.734;2022-07-05T07:27:50;17.90;99.90
52305;DHT22;38248;52.722;6.734;2022-07-05T07:30:21;18.00;99.90
52305;DHT22;38248;52.722;6.734;2022-07-05T07:32:47;18.20;99.90
52305;DHT22;38248;52.722;6.734;2022-07-05T07:35:13;18.20;99.90
52305;DHT22;38248;52.722;6.734;2022-07-05T07:37:39;18.50;99.90
52305;DHT22;38248;52.722;6.734;2022-07-05T07:40:06;18.60;99.90
52305;DHT22;38248;52.722;6.734;2022-07-05T07:42:32;18.70;99.90
52305;DHT22;38248;52.722;6.734;2022-07-05T07:45:00;18.80;99.90
52305;DHT22;38248;52.722;6.734;2022-07-05T07:47:36;18.90;99.90
52305;DHT22;38248;52.722;6.734;2022-07-05T07:50:03;18.90;99.90
52305;DHT22;38248;52.722;6.734;2022-07-05T07:52:29;18.90;99.90
52305;DHT22;38248;52.722;6.734;2022-07-05T07:54:56;18.90;99.90
52305;DHT22;38248;52.722;6.734;2022-07-05T07:57:21;19.00;99.90
52305;DHT22;38248;52.722;6.734;2022-07-05T07:59:47;19.10;99.90
52305;DHT22;38248;52.722;6.734;2022-07-05T08:02:13;19.30;99.90
52305;DHT22;38248;52.722;6.734;2022-07-05T08:04:38;19.50;99.90
52305;DHT22;38248;52.722;6.734;2022-07-05T08:07:04;19.50;99.90
52305;DHT22;38248;52.722;6.734;2022-07-05T08:09:30;19.40;99.90
52305;DHT22;38248;52.722;6.734;2022-07-05T08:11:56;19.20;99.90
52305;DHT22;38248;52.722;6.734;2022-07-05T08:14:22;19.10;99.90
52305;DHT22;38248;52.722;6.734;2022-07-05T08:16:48;19.20;99.90
52305;DHT22;38248;52.722;6.734;2022-07-05T08:19:15;19.00;99.90
52305;DHT22;38248;52.722;6.734;2022-07-05T08:21:59;18.90;99.90
52305;DHT22;38248;52.722;6.734;2022-07-05T08:24:27;18.90;99.90
52305;DHT22;38248;52.722;6.734;2022-07-05T08:26:53;19.00;99.90
52305;DHT22;38248;52.722;6.734;2022-07-05T08:29:18;18.90;99.90
52305;DHT22;38248;52.722;6.734;2022-07-05T08:31:46;18.90;99.90
52305;DHT22;38248;52.722;6.734;2022-07-05T08:34:13;19.00;99.90
52305;DHT22;38248;52.722;6.734;2022-07-05T08:36:39;19.20;99.90
52305;DHT22;38248;52.722;6.734;2022-07-05T08:39:07;19.30;99.50
52305;DHT22;38248;52.722;6.734;2022-07-05T08:41:37;19.20;99.80
52305;DHT22;38248;52.722;6.734;2022-07-05T08:44:04;19.10;99.40
52305;DHT22;38248;52.722;6.734;2022-07-05T08:46:30;19.00;99.40
52305;DHT22;38248;52.722;6.734;2022-07-05T08:48:59;18.90;99.80
52305;DHT22;38248;52.722;6.734;2022-07-05T08:51:27;18.90;99.90
52305;DHT22;38248;52.722;6.734;2022-07-05T08:53:54;19.10;99.90
52305;DHT22;38248;52.722;6.734;2022-07-05T08:56:21;19.30;99.90
52305;DHT22;38248;52.722;6.734;2022-07-05T08:59:03;19.50;99.80
52305;DHT22;38248;52.722;6.734;2022-07-05T09:01:29;19.90;99.80
52305;DHT22;38248;52.722;6.734;2022-07-05T09:03:59;20.20;98.40
52305;DHT22;38248;52.722;6.734;2022-07-05T09:06:26;20.20;98.40
52305;DHT22;38248;52.722;6.734;2022-07-05T09:08:55;20.00;98.30
52305;DHT22;38248;52.722;6.734;2022-07-05T09:11:25;19.80;98.50
52305;DHT22;38248;52.722;6.734;2022-07-05T09:13:53;19.60;98.80
52305;DHT22;38248;52.722;6.734;2022-07-05T09:16:19;19.40;98.50
52305;DHT22;38248;52.722;6.734;2022-07-05T09:18:50;19.50;99.20
52305;DHT22;38248;52.722;6.734;2022-07-05T09:21:18;19.70;99.50
52305;DHT22;38248;52.722;6.734;2022-07-05T09:23:58;20.00;98.90
52305;DHT22;38248;52.722;6.734;2022-07-05T09:26:32;20.10;98.90
52305;DHT22;38248;52.722;6.734;2022-07-05T09:28:59;20.10;97.50
52305;DHT22;38248;52.722;6.734;2022-07-05T09:31:30;20.10;98.30
52305;DHT22;38248;52.722;6.734;2022-07-05T09:34:09;20.50;98.80
52305;DHT22;38248;52.722;6.734;2022-07-05T09:36:56;20.70;96.80
52305;DHT22;38248;52.722;6.734;2022-07-05T09:39:35;20.60;97.60
52305;DHT22;38248;52.722;6.734;2022-07-05T09:42:11;20.40;93.00
52305;DHT22;38248;52.722;6.734;2022-07-05T09:44:39;20.30;92.10
52305;DHT22;38248;52.722;6.734;2022-07-05T09:47:08;20.50;92.60
52305;DHT22;38248;52.722;6.734;2022-07-05T09:53:19;21.20;93.40
52305;DHT22;38248;52.722;6.734;2022-07-05T10:05:49;21.70;88.80
52305;DHT22;38248;52.722;6.734;2022-07-05T10:11:01;21.40;88.90
52305;DHT22;38248;52.722;6.734;2022-07-05T10:17:09;20.80;89.90
52305;DHT22;38248;52.722;6.734;2022-07-05T10:19:38;21.00;89.80
52305;DHT22;38248;52.722;6.734;2022-07-05T10:22:06;21.00;88.30
52305;DHT22;38248;52.722;6.734;2022-07-05T10:24:34;21.00;89.20
52305;DHT22;38248;52.722;6.734;2022-07-05T10:27:03;21.10;90.10
52305;DHT22;38248;52.722;6.734;2022-07-05T10:29:31;21.10;88.60
52305;DHT22;38248;52.722;6.734;2022-07-05T10:31:58;21.00;88.70
52305;DHT22;38248;52.722;6.734;2022-07-05T10:34:24;20.90;89.90
52305;DHT22;38248;52.722;6.734;2022-07-05T10:36:50;20.70;90.60
52305;DHT22;38248;52.722;6.734;2022-07-05T10:39:16;20.70;90.60
52305;DHT22;38248;52.722;6.734;2022-07-05T10:41:42;21.00;90.80
52305;DHT22;38248;52.722;6.734;2022-07-05T10:44:08;21.40;90.40
52305;DHT22;38248;52.722;6.734;2022-07-05T10:46:36;21.50;88.90
52305;DHT22;38248;52.722;6.734;2022-07-05T10:49:14;21.40;86.40
52305;DHT22;38248;52.722;6.734;2022-07-05T10:51:41;21.00;86.20
52305;DHT22;38248;52.722;6.734;2022-07-05T10:54:07;20.60;86.50
52305;DHT22;38248;52.722;6.734;2022-07-05T10:56:32;20.40;86.60
52305;DHT22;38248;52.722;6.734;2022-07-05T10:59:10;20.10;87.20
52305;DHT22;38248;52.722;6.734;2022-07-05T11:01:40;20.00;88.10
52305;DHT22;38248;52.722;6.734;2022-07-05T11:04:24;20.00;89.60
52305;DHT22;38248;52.722;6.734;2022-07-05T11:06:52;20.20;89.60
52305;DHT22;38248;52.722;6.734;2022-07-05T11:09:19;20.50;91.10
52305;DHT22;38248;52.722;6.734;2022-07-05T11:12:06;21.00;90.80
52305;DHT22;38248;52.722;6.734;2022-07-05T11:14:34;21.30;89.00
52305;DHT22;38248;52.722;6.734;2022-07-05T11:17:11;21.20;88.10
52305;DHT22;38248;52.722;6.734;2022-07-05T11:20:09;20.80;88.10
52305;DHT22;38248;52.722;6.734;2022-07-05T11:22:38;20.50;89.50
52305;DHT22;38248;52.722;6.734;2022-07-05T11:25:05;20.20;90.10
52305;DHT22;38248;52.722;6.734;2022-07-05T11:27:33;20.00;90.60
52305;DHT22;38248;52.722;6.734;2022-07-05T11:29:58;19.90;90.90
52305;DHT22;38248;52.722;6.734;2022-07-05T11:35:14;19.90;91.00
52305;DHT22;38248;52.722;6.734;2022-07-05T11:38:02;20.00;91.30
52305;DHT22;38248;52.722;6.734;2022-07-05T11:40:33;20.20;91.10
52305;DHT22;38248;52.722;6.734;2022-07-05T11:42:59;20.50;91.20
52305;DHT22;38248;52.722;6.734;2022-07-05T11:45:25;20.70;90.20
52305;DHT22;38248;52.722;6.734;2022-07-05T11:47:54;20.90;90.50
52305;DHT22;38248;52.722;6.734;2022-07-05T11:50:32;20.90;88.60
52305;DHT22;38248;52.722;6.734;2022-07-05T11:52:59;20.80;89.60
52305;DHT22;38248;52.722;6.734;2022-07-05T11:55:27;20.90;90.60
52305;DHT22;38248;52.722;6.734;2022-07-05T11:57:54;21.00;90.20
52305;DHT22;38248;52.722;6.734;2022-07-05T12:00:27;20.80;89.00
52305;DHT22;38248;52.722;6.734;2022-07-05T12:02:53;20.40;89.20
52305;DHT22;38248;52.722;6.734;2022-07-05T12:05:18;20.10;89.90
52305;DHT22;38248;52.722;6.734;2022-07-05T12:07:49;19.80;90.10
52305;DHT22;38248;52.722;6.734;2022-07-05T12:10:15;19.60;90.30
52305;DHT22;38248;52.722;6.734;2022-07-05T12:13:09;19.40;90.70
52305;DHT22;38248;52.722;6.734;2022-07-05T12:15:38;19.40;90.80
52305;DHT22;38248;52.722;6.734;2022-07-05T12:18:05;19.40;91.10
52305;DHT22;38248;52.722;6.734;2022-07-05T12:20:39;19.60;90.60
52305;DHT22;38248;52.722;6.734;2022-07-05T12:23:06;20.10;90.60
52305;DHT22;38248;52.722;6.734;2022-07-05T12:25:33;20.50;90.70
52305;DHT22;38248;52.722;6.734;2022-07-05T12:28:00;20.80;89.80
52305;DHT22;38248;52.722;6.734;2022-07-05T12:30:30;21.00;85.60
52305;DHT22;38248;52.722;6.734;2022-07-05T12:33:07;21.00;85.80
52305;DHT22;38248;52.722;6.734;2022-07-05T12:35:42;21.20;86.00
52305;DHT22;38248;52.722;6.734;2022-07-05T12:38:13;21.40;86.40
52305;DHT22;38248;52.722;6.734;2022-07-05T12:41:03;21.30;84.30
52305;DHT22;38248;52.722;6.734;2022-07-05T12:43:31;21.20;84.90
52305;DHT22;38248;52.722;6.734;2022-07-05T12:46:08;20.90;83.80
52305;DHT22;38248;52.722;6.734;2022-07-05T12:48:38;20.80;83.40
52305;DHT22;38248;52.722;6.734;2022-07-05T12:51:05;20.50;80.80
52305;DHT22;38248;52.722;6.734;2022-07-05T12:53:31;20.40;80.00
52305;DHT22;38248;52.722;6.734;2022-07-05T12:56:15;20.30;81.10
52305;DHT22;38248;52.722;6.734;2022-07-05T12:59:04;20.30;82.00
52305;DHT22;38248;52.722;6.734;2022-07-05T13:01:41;20.40;80.00
52305;DHT22;38248;52.722;6.734;2022-07-05T13:04:15;20.60;80.30
52305;DHT22;38248;52.722;6.734;2022-07-05T13:12:15;20.80;80.10
52305;DHT22;38248;52.722;6.734;2022-07-05T13:14:52;20.90;77.70
52305;DHT22;38248;52.722;6.734;2022-07-05T13:17:22;20.90;76.60
52305;DHT22;38248;52.722;6.734;2022-07-05T13:19:49;21.00;78.70
52305;DHT22;38248;52.722;6.734;2022-07-05T13:22:15;21.40;78.60
52305;DHT22;38248;52.722;6.734;2022-07-05T13:24:42;21.50;77.70
52305;DHT22;38248;52.722;6.734;2022-07-05T13:27:08;21.50;76.00
52305;DHT22;38248;52.722;6.734;2022-07-05T13:29:35;21.40;77.10
52305;DHT22;38248;52.722;6.734;2022-07-05T13:32:01;21.20;77.40
52305;DHT22;38248;52.722;6.734;2022-07-05T13:34:26;20.90;78.30
52305;DHT22;38248;52.722;6.734;2022-07-05T13:36:54;20.70;78.90
52305;DHT22;38248;52.722;6.734;2022-07-05T13:39:20;20.80;78.90
52305;DHT22;38248;52.722;6.734;2022-07-05T13:41:52;20.90;78.30
52305;DHT22;38248;52.722;6.734;2022-07-05T13:44:18;21.10;79.70
52305;DHT22;38248;52.722;6.734;2022-07-05T13:46:44;21.20;77.50
52305;DHT22;38248;52.722;6.734;2022-07-05T13:49:10;21.30;78.30
52305;DHT22;38248;52.722;6.734;2022-07-05T13:51:36;21.40;79.30
52305;DHT22;38248;52.722;6.734;2022-07-05T13:54:02;21.30;78.30
52305;DHT22;38248;52.722;6.734;2022-07-05T13:56:28;21.30;79.20
52305;DHT22;38248;52.722;6.734;2022-07-05T13:58:54;21.40;79.50
52305;DHT22;38248;52.722;6.734;2022-07-05T14:01:21;21.60;79.40
52305;DHT22;38248;52.722;6.734;2022-07-05T14:03:54;21.70;77.80
52305;DHT22;38248;52.722;6.734;2022-07-05T14:06:20;21.70;75.80
52305;DHT22;38248;52.722;6.734;2022-07-05T14:08:46;21.50;76.40
52305;DHT22;38248;52.722;6.734;2022-07-05T14:11:11;21.40;78.20
52305;DHT22;38248;52.722;6.734;2022-07-05T14:13:38;21.30;78.60
52305;DHT22;38248;52.722;6.734;2022-07-05T14:16:04;21.50;78.90
52305;DHT22;38248;52.722;6.734;2022-07-05T14:18:30;21.70;77.20
52305;DHT22;38248;52.722;6.734;2022-07-05T14:20:56;21.90;77.60
52305;DHT22;38248;52.722;6.734;2022-07-05T14:23:22;21.80;78.00
52305;DHT22;38248;52.722;6.734;2022-07-05T14:25:47;21.80;76.40
52305;DHT22;38248;52.722;6.734;2022-07-05T14:28:13;22.10;77.90
52305;DHT22;38248;52.722;6.734;2022-07-05T14:30:43;22.20;74.00
52305;DHT22;38248;52.722;6.734;2022-07-05T14:33:10;22.30;74.30
52305;DHT22;38248;52.722;6.734;2022-07-05T14:35:36;22.50;76.40
52305;DHT22;38248;52.722;6.734;2022-07-05T14:38:06;22.70;75.00
52305;DHT22;38248;52.722;6.734;2022-07-05T14:40:32;22.60;74.20
52305;DHT22;38248;52.722;6.734;2022-07-05T14:42:58;22.30;72.80
52305;DHT22;38248;52.722;6.734;2022-07-05T14:45:25;21.80;73.70
52305;DHT22;38248;52.722;6.734;2022-07-05T14:47:52;21.50;73.80
52305;DHT22;38248;52.722;6.734;2022-07-05T14:50:18;21.10;74.40
52305;DHT22;38248;52.722;6.734;2022-07-05T14:52:46;20.80;74.20
52305;DHT22;38248;52.722;6.734;2022-07-05T14:55:12;20.60;75.90
52305;DHT22;38248;52.722;6.734;2022-07-05T14:57:41;20.50;74.20
52305;DHT22;38248;52.722;6.734;2022-07-05T15:00:10;20.60;76.60
52305;DHT22;38248;52.722;6.734;2022-07-05T15:02:36;21.10;76.70
52305;DHT22;38248;52.722;6.734;2022-07-05T15:05:03;21.70;73.70
52305;DHT22;38248;52.722;6.734;2022-07-05T15:07:29;22.00;72.50
52305;DHT22;38248;52.722;6.734;2022-07-05T15:09:55;22.00;70.20
52305;DHT22;38248;52.722;6.734;2022-07-05T15:12:21;21.80;72.50
52305;DHT22;38248;52.722;6.734;2022-07-05T15:14:47;21.90;73.60
52305;DHT22;38248;52.722;6.734;2022-07-05T15:17:16;21.80;74.30
52305;DHT22;38248;52.722;6.734;2022-07-05T15:19:42;21.60;73.10
52305;DHT22;38248;52.722;6.734;2022-07-05T15:22:07;21.30;72.70
52305;DHT22;38248;52.722;6.734;2022-07-05T15:24:35;21.10;72.30
52305;DHT22;38248;52.722;6.734;2022-07-05T15:27:01;21.00;71.90
52305;DHT22;38248;52.722;6.734;2022-07-05T15:29:27;21.00;72.30
52305;DHT22;38248;52.722;6.734;2022-07-05T15:31:54;21.10;74.10
52305;DHT22;38248;52.722;6.734;2022-07-05T15:34:21;21.50;74.60
52305;DHT22;38248;52.722;6.734;2022-07-05T15:36:47;22.00;74.50
52305;DHT22;38248;52.722;6.734;2022-07-05T15:39:12;22.20;71.00
52305;DHT22;38248;52.722;6.734;2022-07-05T15:41:38;22.00;70.60
52305;DHT22;38248;52.722;6.734;2022-07-05T15:44:04;21.60;70.60
52305;DHT22;38248;52.722;6.734;2022-07-05T15:46:30;21.20;72.20
52305;DHT22;38248;52.722;6.734;2022-07-05T15:49:15;21.10;72.80
52305;DHT22;38248;52.722;6.734;2022-07-05T15:51:41;20.90;74.20
52305;DHT22;38248;52.722;6.734;2022-07-05T15:54:06;20.80;75.80
52305;DHT22;38248;52.722;6.734;2022-07-05T15:56:35;20.70;76.20
52305;DHT22;38248;52.722;6.734;2022-07-05T15:59:00;20.70;75.80
52305;DHT22;38248;52.722;6.734;2022-07-05T16:01:26;20.60;74.70